Time;durP1;ratioP1;P1;durP2;ratioP2;P2;SDS_P1;SDS_P2;PMS_P1;PMS_P2;Temp;Humidity;BMP_temperature;BMP_pressure;BME280_temperature;BME280_humidity;BME280_pressure;Samples;Min_cycle;Max_cycle;Signal;HPM_P1;HPM_P2
2023/03/05 00:01:44;;;;;;;;;;;;;;;23.85;18.30;97756.34;5028225;28;20091;-90
2023/03/05 00:04:14;;;;;;;;;;;;;;;23.60;18.39;97750.56;5030893;28;20332;-90
2023/03/05 00:06:40;;;;;;;;;;;;;;;23.47;18.54;97747.69;5028953;28;20056;-90
2023/03/05 00:09:06;;;;;;;;;;;;;;;23.40;19.06;97742.25;5026186;28;20413;-90
2023/03/05 00:11:32;;;;;;;;;;;;;;;23.25;18.75;97749.38;5027230;28;20296;-90
2023/03/05 00:13:59;;;;;;;;;;;;;;;23.15;19.17;97742.81;5029539;28;20015;-90
2023/03/05 00:16:26;;;;;;;;;;;;;;;23.20;18.97;97744.28;5034730;28;19925;-90
2023/03/05 00:18:54;;;;;;;;;;;;;;;23.31;19.16;97747.66;5032454;28;20339;-90
2023/03/05 00:21:24;;;;;;;;;;;;;;;23.60;19.12;97754.16;5013602;28;19925;-90
2023/03/05 00:23:51;;;;;;;;;;;;;;;23.91;19.05;97744.13;5033506;28;19922;-90
2023/03/05 00:26:18;;;;;;;;;;;;;;;24.17;18.67;97744.28;5028736;28;19927;-90
2023/03/05 00:28:48;;;;;;;;;;;;;;;24.35;18.39;97742.56;5009253;28;19932;-90
2023/03/05 00:31:15;;;;;;;;;;;;;;;24.42;18.38;97742.34;5020529;28;19925;-90
2023/03/05 00:33:42;;;;;;;;;;;;;;;24.51;18.69;97738.88;5020431;28;19948;-90
2023/03/05 00:36:08;;;;;;;;;;;;;;;24.62;18.38;97733.78;5023662;28;19921;-90
2023/03/05 00:38:34;;;;;;;;;;;;;;;24.63;17.68;97729.72;5031951;28;20338;-90
2023/03/05 00:41:01;;;;;;;;;;;;;;;24.69;18.00;97730.75;5029294;28;19930;-90
2023/03/05 00:43:27;;;;;;;;;;;;;;;24.71;18.20;97720.63;5033199;28;20395;-90
2023/03/05 00:45:53;;;;;;;;;;;;;;;24.73;18.21;97717.38;5013836;28;19929;-90
2023/03/05 00:48:21;;;;;;;;;;;;;;;24.83;18.17;97721.13;5022162;28;19931;-91
2023/03/05 00:50:47;;;;;;;;;;;;;;;24.81;18.29;97712.38;5032345;28;19922;-90
2023/03/05 00:53:13;;;;;;;;;;;;;;;24.86;18.43;97715.41;5032750;28;20008;-90
2023/03/05 00:55:39;;;;;;;;;;;;;;;24.93;17.93;97709.56;5032920;28;20023;-90
2023/03/05 00:58:05;;;;;;;;;;;;;;;24.79;17.84;97712.00;5032292;28;20015;-90
2023/03/05 01:00:31;;;;;;;;;;;;;;;24.60;18.12;97710.94;5025817;28;19974;-90
2023/03/05 01:02:57;;;;;;;;;;;;;;;24.54;18.24;97709.94;5032570;28;20316;-91
2023/03/05 01:05:23;;;;;;;;;;;;;;;24.56;17.91;97711.06;5032192;28;19928;-90
2023/03/05 01:07:53;;;;;;;;;;;;;;;24.33;18.33;97719.75;5027680;28;19991;-90
2023/03/05 01:10:19;;;;;;;;;;;;;;;24.10;18.36;97708.81;5029426;28;19925;-90
2023/03/05 01:12:45;;;;;;;;;;;;;;;23.84;18.60;97712.69;5043165;28;19920;-90
2023/03/05 01:15:11;;;;;;;;;;;;;;;23.86;18.53;97708.22;5012432;28;20431;-90
2023/03/05 01:17:37;;;;;;;;;;;;;;;24.05;18.64;97701.69;5028455;28;19921;-90
2023/03/05 01:20:04;;;;;;;;;;;;;;;24.26;18.99;97711.56;5027393;28;19921;-90
2023/03/05 01:22:30;;;;;;;;;;;;;;;24.42;18.82;97702.28;5031329;28;20388;-90
2023/03/05 01:24:56;;;;;;;;;;;;;;;24.62;18.47;97706.47;5023305;28;20023;-90
2023/03/05 01:27:22;;;;;;;;;;;;;;;24.74;18.60;97704.91;5022683;28;20456;-89
2023/03/05 01:29:48;;;;;;;;;;;;;;;24.80;18.52;97702.38;5030636;28;19925;-90
2023/03/05 01:32:14;;;;;;;;;;;;;;;24.58;18.64;97700.19;5024343;28;20365;-89
2023/03/05 01:34:40;;;;;;;;;;;;;;;24.51;18.42;97702.41;5028727;28;19925;-90
2023/03/05 01:37:07;;;;;;;;;;;;;;;24.38;19.03;97702.38;5034103;28;19978;-90
2023/03/05 01:39:35;;;;;;;;;;;;;;;24.47;18.55;97702.50;5038683;28;19921;-89
2023/03/05 01:42:01;;;;;;;;;;;;;;;24.52;18.54;97704.78;5035648;28;20292;-89
2023/03/05 01:44:28;;;;;;;;;;;;;;;24.23;18.17;97704.00;5025289;28;20349;-89
2023/03/05 01:46:54;;;;;;;;;;;;;;;23.84;19.39;97699.47;5035460;28;19922;-89
2023/03/05 01:49:28;;;;;;;;;;;;;;;23.81;18.63;97700.34;5037604;28;19952;-89
2023/03/05 01:52:01;;;;;;;;;;;;;;;23.67;18.96;97702.72;5016031;28;20265;-88
2023/03/05 01:54:30;;;;;;;;;;;;;;;23.34;19.35;97704.75;5033785;28;19983;-89
2023/03/05 01:56:58;;;;;;;;;;;;;;;23.15;19.47;97705.63;5028078;28;19925;-89
2023/03/05 01:59:25;;;;;;;;;;;;;;;23.24;19.38;97695.38;5038833;28;20336;-88
2023/03/05 02:01:53;;;;;;;;;;;;;;;22.45;20.19;97699.59;5037768;28;19931;-88
2023/03/05 02:04:20;;;;;;;;;;;;;;;22.60;20.06;97698.06;5025686;28;20427;-87
2023/03/05 02:06:47;;;;;;;;;;;;;;;23.11;20.01;97696.50;5037539;28;19928;-87
2023/03/05 02:09:13;;;;;;;;;;;;;;;23.05;19.67;97701.06;5033090;28;19968;-87
2023/03/05 02:11:40;;;;;;;;;;;;;;;22.80;20.39;97704.44;5034637;28;19917;-87
2023/03/05 02:14:06;;;;;;;;;;;;;;;22.36;20.84;97699.38;5037474;28;20389;-88
2023/03/05 02:16:35;;;;;;;;;;;;;;;22.69;20.53;97707.47;5036451;28;19929;-88
2023/03/05 02:19:03;;;;;;;;;;;;;;;23.07;19.87;97704.22;5021863;28;19925;-87
2023/03/05 02:21:36;;;;;;;;;;;;;;;22.83;20.10;97702.78;5035874;28;19936;-87
2023/03/05 02:24:02;;;;;;;;;;;;;;;22.15;20.82;97694.25;5035706;28;20380;-87
2023/03/05 02:26:28;;;;;;;;;;;;;;;22.47;20.67;97695.16;5037987;28;20381;-87
2023/03/05 02:28:57;;;;;;;;;;;;;;;22.80;20.18;97696.03;5031095;28;20412;-87
2023/03/05 02:31:24;;;;;;;;;;;;;;;22.88;20.29;97693.88;5028493;28;19928;-87
2023/03/05 02:33:51;;;;;;;;;;;;;;;22.96;19.75;97701.69;5033909;28;19925;-87
2023/03/05 02:36:17;;;;;;;;;;;;;;;22.80;20.31;97693.22;5020383;28;20358;-87
2023/03/05 02:38:44;;;;;;;;;;;;;;;21.93;20.86;97694.66;5037880;28;20289;-87
2023/03/05 02:41:10;;;;;;;;;;;;;;;20.37;22.58;97697.56;5036720;28;20684;-87
2023/03/05 02:43:36;;;;;;;;;;;;;;;20.47;22.54;97699.41;5030810;28;19921;-87
2023/03/05 02:46:02;;;;;;;;;;;;;;;20.77;22.11;97693.78;5027351;28;20026;-87
2023/03/05 02:48:28;;;;;;;;;;;;;;;20.46;22.34;97692.25;5023961;28;20336;-87
2023/03/05 02:50:55;;;;;;;;;;;;;;;20.41;21.75;97689.94;5028778;28;19921;-87
2023/03/05 02:53:22;;;;;;;;;;;;;;;20.22;21.97;97688.59;5028112;28;19967;-87
2023/03/05 02:55:49;;;;;;;;;;;;;;;19.65;22.61;97699.53;5028201;28;19921;-87
2023/03/05 02:58:15;;;;;;;;;;;;;;;20.53;21.43;97692.97;5030215;28;19932;-87
2023/03/05 03:00:42;;;;;;;;;;;;;;;20.44;21.79;97689.88;5022158;28;19944;-87
2023/03/05 03:03:08;;;;;;;;;;;;;;;21.09;21.01;97682.19;5029969;28;19921;-87
2023/03/05 03:05:34;;;;;;;;;;;;;;;21.59;20.43;97682.09;5024642;28;19971;-87
2023/03/05 03:08:00;;;;;;;;;;;;;;;22.03;20.21;97681.72;5019967;28;20012;-87
2023/03/05 03:10:26;;;;;;;;;;;;;;;22.25;19.72;97682.03;5029096;28;19947;-86
2023/03/05 03:12:52;;;;;;;;;;;;;;;22.56;19.16;97677.78;5030846;28;20074;-87
2023/03/05 03:15:18;;;;;;;;;;;;;;;22.36;18.57;97674.19;5034803;28;20412;-87
2023/03/05 03:17:45;;;;;;;;;;;;;;;22.31;18.63;97672.69;5029093;28;19928;-87
2023/03/05 03:20:12;;;;;;;;;;;;;;;22.17;18.75;97669.44;5026050;28;19921;-88
2023/03/05 03:22:39;;;;;;;;;;;;;;;22.25;19.25;97668.84;5031228;28;19961;-89
2023/03/05 03:25:05;;;;;;;;;;;;;;;22.57;19.15;97668.94;5018820;28;20008;-89
2023/03/05 03:27:31;;;;;;;;;;;;;;;23.10;18.70;97669.75;5036861;28;19925;-88
2023/03/05 03:30:01;;;;;;;;;;;;;;;23.20;17.86;97674.28;5031889;28;19928;-88
2023/03/05 03:32:27;;;;;;;;;;;;;;;22.85;17.93;97678.72;5034437;28;19958;-88
2023/03/05 03:34:53;;;;;;;;;;;;;;;22.75;18.12;97671.38;5016313;28;20377;-88
2023/03/05 03:37:19;;;;;;;;;;;;;;;22.91;18.42;97654.59;4998153;28;19968;-89
2023/03/05 03:39:45;;;;;;;;;;;;;;;23.01;18.83;97661.94;5030549;28;19979;-88
2023/03/05 03:42:11;;;;;;;;;;;;;;;23.39;18.69;97648.22;5033685;28;20020;-89
2023/03/05 03:44:37;;;;;;;;;;;;;;;23.69;18.01;97645.00;5035016;28;20012;-88
2023/03/05 03:47:03;;;;;;;;;;;;;;;23.50;17.84;97639.53;5034696;28;19968;-88
2023/03/05 03:49:29;;;;;;;;;;;;;;;23.51;18.07;97646.72;5035130;28;19928;-88
2023/03/05 03:51:57;;;;;;;;;;;;;;;23.14;18.43;97646.03;5033680;28;19921;-88
2023/03/05 03:54:23;;;;;;;;;;;;;;;23.00;18.66;97649.19;5024649;28;19990;-88
2023/03/05 03:56:49;;;;;;;;;;;;;;;23.14;18.62;97643.22;5033264;28;19929;-88
2023/03/05 03:59:15;;;;;;;;;;;;;;;23.53;18.37;97636.63;5031072;28;20063;-89
2023/03/05 04:01:41;;;;;;;;;;;;;;;23.80;17.80;97636.31;5034863;28;19925;-89
2023/03/05 04:04:09;;;;;;;;;;;;;;;23.70;17.97;97632.56;5034907;28;19921;-88
2023/03/05 04:06:35;;;;;;;;;;;;;;;23.96;17.87;97636.25;5013909;28;20019;-88
2023/03/05 04:09:01;;;;;;;;;;;;;;;24.18;17.90;97642.06;5031879;28;20048;-88
2023/03/05 04:11:27;;;;;;;;;;;;;;;24.32;18.08;97645.22;5027934;28;20336;-88
2023/03/05 04:13:53;;;;;;;;;;;;;;;24.42;17.69;97634.91;5027606;28;19921;-88
2023/03/05 04:16:19;;;;;;;;;;;;;;;24.49;17.71;97629.09;5033268;28;19933;-89
2023/03/05 04:18:45;;;;;;;;;;;;;;;24.53;17.70;97624.94;5035621;28;19921;-89
2023/03/05 04:21:11;;;;;;;;;;;;;;;24.58;17.84;97615.16;5015351;28;19921;-89
2023/03/05 04:23:37;;;;;;;;;;;;;;;24.61;17.65;97614.28;5029046;28;20012;-88
2023/03/05 04:26:03;;;;;;;;;;;;;;;24.32;17.21;97614.38;5031127;28;19928;-89
2023/03/05 04:28:30;;;;;;;;;;;;;;;23.99;17.36;97619.31;5030173;28;19933;-85
2023/03/05 04:30:56;;;;;;;;;;;;;;;23.83;17.58;97610.97;5030579;28;20350;-90
2023/03/05 04:33:22;;;;;;;;;;;;;;;23.74;17.88;97602.41;5024081;28;20020;-90
2023/03/05 04:35:48;;;;;;;;;;;;;;;23.86;18.37;97612.09;5031225;28;20376;-90
2023/03/05 04:38:14;;;;;;;;;;;;;;;24.00;17.71;97618.09;5016723;28;19924;-90
2023/03/05 04:40:40;;;;;;;;;;;;;;;23.68;18.17;97606.22;5033333;28;19925;-91
2023/03/05 04:43:07;;;;;;;;;;;;;;;23.73;18.30;97612.06;5027718;28;19920;-87
2023/03/05 04:45:33;;;;;;;;;;;;;;;23.78;18.27;97608.69;5025897;28;20296;-87
2023/03/05 04:47:59;;;;;;;;;;;;;;;23.88;18.14;97609.63;5030159;28;19921;-87
2023/03/05 04:50:25;;;;;;;;;;;;;;;23.97;18.43;97613.38;5026027;28;19921;-87
2023/03/05 04:52:51;;;;;;;;;;;;;;;23.80;17.58;97600.66;5030767;28;19921;-87
2023/03/05 04:55:17;;;;;;;;;;;;;;;23.56;18.02;97612.53;5030803;28;19928;-87
2023/03/05 04:57:44;;;;;;;;;;;;;;;23.47;17.93;97607.59;5025840;28;19925;-88
2023/03/05 05:00:13;;;;;;;;;;;;;;;22.91;18.48;97612.59;5022905;28;19933;-88
2023/03/05 05:02:40;;;;;;;;;;;;;;;23.12;18.58;97612.06;5032589;28;19918;-88
2023/03/05 05:05:07;;;;;;;;;;;;;;;23.21;18.34;97603.03;5032727;28;19928;-87
2023/03/05 05:07:33;;;;;;;;;;;;;;;23.22;18.26;97602.59;5033413;28;19943;-87
2023/03/05 05:09:59;;;;;;;;;;;;;;;22.56;19.21;97605.03;5014095;28;19963;-87
2023/03/05 05:12:27;;;;;;;;;;;;;;;22.00;19.35;97607.88;5029932;28;20385;-87
2023/03/05 05:14:53;;;;;;;;;;;;;;;22.02;19.80;97610.22;5029623;28;19921;-88
2023/03/05 05:17:19;;;;;;;;;;;;;;;21.96;19.49;97604.34;5033484;28;19932;-88
2023/03/05 05:19:45;;;;;;;;;;;;;;;21.93;19.34;97596.03;5012124;28;19913;-88
2023/03/05 05:22:11;;;;;;;;;;;;;;;21.62;19.60;97600.22;5027104;28;19925;-87
2023/03/05 05:24:37;;;;;;;;;;;;;;;22.13;20.16;97598.81;5012346;28;20000;-87
2023/03/05 05:27:03;;;;;;;;;;;;;;;22.68;18.82;97607.94;5027758;28;19921;-87
2023/03/05 05:29:29;;;;;;;;;;;;;;;22.60;18.70;97602.94;5026810;28;19921;-88
2023/03/05 05:31:55;;;;;;;;;;;;;;;22.65;18.98;97600.44;5030894;28;20015;-88
2023/03/05 05:34:24;;;;;;;;;;;;;;;22.40;18.96;97605.81;5022474;28;19922;-88
2023/03/05 05:36:50;;;;;;;;;;;;;;;22.57;19.15;97614.97;5024503;28;19933;-88
2023/03/05 05:39:16;;;;;;;;;;;;;;;22.74;19.17;97605.41;5010604;28;19963;-89
2023/03/05 05:41:42;;;;;;;;;;;;;;;23.14;18.98;97587.22;5024737;28;19976;-90
2023/03/05 05:44:08;;;;;;;;;;;;;;;23.16;18.62;97583.97;5024966;28;19925;-89
2023/03/05 05:46:34;;;;;;;;;;;;;;;23.23;18.59;97584.56;5032983;28;20293;-88
2023/03/05 05:49:00;;;;;;;;;;;;;;;23.35;18.88;97589.50;5034591;28;19963;-89
2023/03/05 05:51:27;;;;;;;;;;;;;;;23.54;18.78;97576.56;5018904;28;19925;-88
2023/03/05 05:53:53;;;;;;;;;;;;;;;23.68;18.54;97584.59;5035118;28;19923;-88
2023/03/05 05:56:19;;;;;;;;;;;;;;;23.78;18.47;97571.50;5049892;28;19927;-88
2023/03/05 05:58:46;;;;;;;;;;;;;;;23.70;18.54;97573.72;5025432;28;20416;-87
2023/03/05 06:01:22;;;;;;;;;;;;;;;23.20;18.41;97588.25;5011937;28;20323;-87
2023/03/05 06:03:48;;;;;;;;;;;;;;;22.80;19.12;97591.69;5035955;28;19952;-87
2023/03/05 06:06:15;;;;;;;;;;;;;;;22.88;18.95;97602.28;5026561;28;19917;-87
2023/03/05 06:08:41;;;;;;;;;;;;;;;22.80;18.92;97600.88;5026136;28;19925;-87
2023/03/05 06:11:08;;;;;;;;;;;;;;;22.60;19.36;97602.94;5029701;28;19929;-87
2023/03/05 06:13:34;;;;;;;;;;;;;;;22.78;19.36;97608.16;5030237;28;19927;-87
2023/03/05 06:16:02;;;;;;;;;;;;;;;22.24;19.68;97604.97;5033734;28;19986;-87
2023/03/05 06:18:28;;;;;;;;;;;;;;;22.32;19.85;97607.16;5029902;28;20004;-87
2023/03/05 06:20:58;;;;;;;;;;;;;;;22.06;19.86;97602.53;5031500;28;19989;-88
2023/03/05 06:23:25;;;;;;;;;;;;;;;21.53;20.81;97611.19;5037613;28;20281;-87
2023/03/05 06:25:51;;;;;;;;;;;;;;;21.16;21.15;97610.28;5035981;28;19957;-88
2023/03/05 06:28:17;;;;;;;;;;;;;;;21.09;21.06;97610.41;5040301;28;19925;-89
2023/03/05 06:30:44;;;;;;;;;;;;;;;19.69;23.08;97616.78;5022348;28;20842;-88
2023/03/05 06:33:10;;;;;;;;;;;;;;;19.17;23.50;97615.28;5031144;28;20016;-88
2023/03/05 06:35:39;;;;;;;;;;;;;;;18.02;24.92;97621.25;5035957;28;19921;-90
2023/03/05 06:38:08;;;;;;;;;;;;;;;16.93;26.92;97633.44;5046460;28;19925;-88
2023/03/05 06:40:34;;;;;;;;;;;;;;;17.30;26.21;97630.22;5056307;28;19928;-89
2023/03/05 06:43:00;;;;;;;;;;;;;;;17.64;26.25;97627.78;5040516;28;19936;-90
2023/03/05 06:45:27;;;;;;;;;;;;;;;18.52;24.64;97619.81;5011950;28;20308;-91
2023/03/05 06:47:53;;;;;;;;;;;;;;;19.61;22.94;97617.25;5034850;28;19921;-93
2023/03/05 06:50:19;;;;;;;;;;;;;;;19.79;22.95;97613.03;5031434;28;19925;-94
2023/03/05 06:52:47;;;;;;;;;;;;;;;19.59;23.13;97617.66;5034430;28;20286;-94
2023/03/05 06:55:13;;;;;;;;;;;;;;;20.77;22.36;97618.47;5025460;28;20056;-94
2023/03/05 06:57:41;;;;;;;;;;;;;;;20.58;21.95;97608.78;5030242;28;20027;-96
2023/03/05 07:00:10;;;;;;;;;;;;;;;20.78;21.58;97603.31;5033772;28;19929;-91
2023/03/05 07:02:36;;;;;;;;;;;;;;;21.59;21.28;97612.25;5030722;28;20381;-89
2023/03/05 07:05:03;;;;;;;;;;;;;;;21.74;20.81;97622.75;5025907;28;20478;-90
2023/03/05 07:07:29;;;;;;;;;;;;;;;21.06;21.16;97608.44;5022575;28;19999;-94
2023/03/05 07:09:55;;;;;;;;;;;;;;;20.14;22.08;97609.00;5031739;28;19937;-93
2023/03/05 07:12:21;;;;;;;;;;;;;;;19.62;22.72;97607.69;5013810;28;19925;-96
2023/03/05 07:14:48;;;;;;;;;;;;;;;19.46;22.93;97613.06;5035812;28;19921;-96
2023/03/05 07:17:14;;;;;;;;;;;;;;;19.43;22.46;97613.88;5030397;28;19921;-95
2023/03/05 07:19:40;;;;;;;;;;;;;;;19.97;22.01;97616.41;5028532;28;20351;-92
2023/03/05 07:22:07;;;;;;;;;;;;;;;20.16;22.27;97611.41;5025983;28;19932;-93
2023/03/05 07:24:33;;;;;;;;;;;;;;;20.66;22.01;97613.06;5031956;28;19921;-95
2023/03/05 07:26:59;;;;;;;;;;;;;;;20.75;21.58;97608.97;5016157;28;20404;-96
2023/03/05 07:29:26;;;;;;;;;;;;;;;20.63;21.39;97610.34;5018244;28;19922;-96
2023/03/05 07:31:53;;;;;;;;;;;;;;;20.80;21.42;97608.47;5035023;28;19931;-95
2023/03/05 07:34:19;;;;;;;;;;;;;;;21.22;21.33;97608.56;5032282;28;20450;-93
2023/03/05 07:36:45;;;;;;;;;;;;;;;20.08;22.19;97619.06;5033921;28;19976;-89
2023/03/05 07:39:11;;;;;;;;;;;;;;;20.74;21.58;97621.31;5011171;28;19918;-92
2023/03/05 07:41:38;;;;;;;;;;;;;;;20.90;21.54;97599.94;5037371;28;20361;-93
2023/03/05 07:44:04;;;;;;;;;;;;;;;21.27;21.27;97602.50;5031030;28;19924;-95
2023/03/05 07:46:31;;;;;;;;;;;;;;;21.78;20.91;97603.09;5029319;28;19945;-95
2023/03/05 07:48:58;;;;;;;;;;;;;;;21.77;20.59;97596.75;5029949;28;19928;-94
2023/03/05 07:51:25;;;;;;;;;;;;;;;22.22;20.62;97601.81;5031185;28;20377;-95
2023/03/05 07:53:51;;;;;;;;;;;;;;;22.67;20.26;97598.00;5033736;28;20069;-94
2023/03/05 07:56:30;;;;;;;;;;;;;;;22.44;20.40;97595.31;5030252;28;20012;-94
2023/03/05 07:59:01;;;;;;;;;;;;;;;22.58;20.14;97594.97;5026218;28;20028;-94
2023/03/05 08:01:27;;;;;;;;;;;;;;;22.59;20.06;97592.97;5023886;28;19976;-94
2023/03/05 08:03:54;;;;;;;;;;;;;;;22.82;19.96;97587.25;5034627;28;19920;-94
2023/03/05 08:06:20;;;;;;;;;;;;;;;22.85;20.31;97577.94;5026738;28;19987;-94
2023/03/05 08:08:46;;;;;;;;;;;;;;;22.76;20.53;97574.97;5028747;28;19939;-93
2023/03/05 08:11:13;;;;;;;;;;;;;;;22.96;20.03;97563.69;5029532;28;19921;-93
2023/03/05 08:13:40;;;;;;;;;;;;;;;23.30;20.15;97561.97;5029945;28;20015;-92
2023/03/05 08:16:07;;;;;;;;;;;;;;;23.27;20.08;97562.84;5015409;28;20012;-93
2023/03/05 08:18:33;;;;;;;;;;;;;;;23.42;19.93;97560.50;5008930;28;19921;-92
2023/03/05 08:21:00;;;;;;;;;;;;;;;23.64;19.99;97561.44;5027434;28;19921;-93
2023/03/05 08:23:26;;;;;;;;;;;;;;;23.95;20.15;97556.94;5029534;28;19921;-95
2023/03/05 08:25:53;;;;;;;;;;;;;;;23.70;19.76;97559.69;5021145;28;19917;-92
2023/03/05 08:28:19;;;;;;;;;;;;;;;23.46;20.03;97549.16;5036633;28;19929;-90
2023/03/05 08:30:46;;;;;;;;;;;;;;;23.61;20.84;97537.13;5031874;28;19957;-94
2023/03/05 08:33:13;;;;;;;;;;;;;;;23.86;20.13;97544.81;5032133;28;19928;-92
2023/03/05 08:35:39;;;;;;;;;;;;;;;23.67;20.75;97537.34;5033593;28;19971;-91
2023/03/05 08:38:05;;;;;;;;;;;;;;;23.43;20.15;97536.84;5029203;28;19949;-91
2023/03/05 08:40:32;;;;;;;;;;;;;;;23.46;20.32;97535.94;5034006;28;20475;-90
2023/03/05 08:42:58;;;;;;;;;;;;;;;23.61;20.83;97531.53;5019590;28;20435;-90
2023/03/05 08:45:26;;;;;;;;;;;;;;;23.92;20.73;97538.19;5033023;28;19964;-93
2023/03/05 08:47:52;;;;;;;;;;;;;;;23.32;19.92;97539.13;5018928;28;19950;-94
2023/03/05 08:50:21;;;;;;;;;;;;;;;23.22;20.44;97529.78;5021871;28;19960;-92
2023/03/05 08:52:48;;;;;;;;;;;;;;;22.83;20.52;97526.44;5029270;28;20388;-92
2023/03/05 08:55:14;;;;;;;;;;;;;;;23.24;21.07;97529.34;5028524;28;19925;-96
2023/03/05 08:57:40;;;;;;;;;;;;;;;23.21;21.08;97521.81;5033736;28;20477;-95
2023/03/05 09:00:09;;;;;;;;;;;;;;;21.98;21.40;97523.63;5031330;28;19924;-93
2023/03/05 09:02:35;;;;;;;;;;;;;;;22.25;21.95;97526.22;5023935;28;19959;-94
2023/03/05 09:05:02;;;;;;;;;;;;;;;22.99;21.09;97518.78;5029754;28;20424;-94
2023/03/05 09:07:28;;;;;;;;;;;;;;;23.49;21.37;97509.06;5009890;28;19921;-96
2023/03/05 09:09:54;;;;;;;;;;;;;;;23.24;21.60;97518.16;5030846;28;19921;-95
2023/03/05 09:12:20;;;;;;;;;;;;;;;23.27;20.94;97515.22;5024999;28;20483;-93
2023/03/05 09:14:46;;;;;;;;;;;;;;;22.97;21.10;97520.47;5034870;28;20008;-89
2023/03/05 09:17:12;;;;;;;;;;;;;;;23.48;20.84;97516.69;5031378;28;19921;-93
2023/03/05 09:19:38;;;;;;;;;;;;;;;22.69;20.83;97508.00;5025800;28;20285;-94
2023/03/05 09:22:04;;;;;;;;;;;;;;;22.78;21.38;97515.78;5031634;28;19921;-93
2023/03/05 09:24:30;;;;;;;;;;;;;;;22.41;21.34;97512.25;5031420;28;19932;-93
2023/03/05 09:26:59;;;;;;;;;;;;;;;23.31;21.60;97510.31;5031519;28;19921;-91
2023/03/05 09:29:26;;;;;;;;;;;;;;;23.88;20.39;97506.69;5031776;28;20401;-92
2023/03/05 09:31:52;;;;;;;;;;;;;;;23.49;20.78;97507.06;5032494;28;19928;-92
2023/03/05 09:34:18;;;;;;;;;;;;;;;23.56;20.47;97501.25;5029773;28;20012;-92
2023/03/05 09:36:44;;;;;;;;;;;;;;;23.03;20.56;97497.13;5035575;28;20396;-92
2023/03/05 09:39:10;;;;;;;;;;;;;;;22.94;21.24;97499.72;5028341;28;19920;-92
2023/03/05 09:41:59;;;;;;;;;;;;;;;23.13;21.58;97496.00;5033653;28;19965;-91
2023/03/05 09:44:25;;;;;;;;;;;;;;;23.86;20.84;97492.34;5014849;28;20434;-91
2023/03/05 09:46:59;;;;;;;;;;;;;;;24.40;21.04;97488.66;5031823;28;20007;-91
2023/03/05 09:49:48;;;;;;;;;;;;;;;24.42;20.27;97483.38;5030730;28;19987;-91
2023/03/05 09:52:18;;;;;;;;;;;;;;;24.20;20.70;97486.09;5032921;28;19933;-91
2023/03/05 09:54:46;;;;;;;;;;;;;;;24.29;20.39;97479.81;5032068;28;19921;-91
2023/03/05 09:57:17;;;;;;;;;;;;;;;23.56;21.44;97476.03;5030186;28;19928;-91
2023/03/05 09:59:46;;;;;;;;;;;;;;;23.34;21.31;97478.66;5034784;28;19929;-92
2023/03/05 10:02:17;;;;;;;;;;;;;;;23.76;21.40;97470.22;5033202;28;19982;-94
2023/03/05 10:04:47;;;;;;;;;;;;;;;23.38;21.26;97469.38;5032549;28;19940;-92
2023/03/05 10:07:36;;;;;;;;;;;;;;;22.75;22.97;97464.28;5035122;28;19928;-92
2023/03/05 10:10:12;;;;;;;;;;;;;;;23.34;21.59;97463.81;5022653;28;19928;-95
2023/03/05 10:12:41;;;;;;;;;;;;;;;23.24;22.01;97454.50;5014490;28;19928;-92
2023/03/05 10:15:11;;;;;;;;;;;;;;;23.24;20.89;97457.28;5027276;28;19921;-92
2023/03/05 10:17:43;;;;;;;;;;;;;;;23.51;21.17;97461.78;5031286;28;19944;-92
2023/03/05 10:20:12;;;;;;;;;;;;;;;22.34;22.67;97456.50;5033636;28;19966;-91
2023/03/05 10:22:38;;;;;;;;;;;;;;;22.37;23.14;97455.63;5030045;28;19929;-91
2023/03/05 10:25:25;;;;;;;;;;;;;;;22.93;21.70;97456.19;5033529;28;19921;-90
2023/03/05 10:27:51;;;;;;;;;;;;;;;23.46;21.95;97451.09;5033062;28;20377;-91
2023/03/05 10:30:37;;;;;;;;;;;;;;;23.84;21.50;97444.34;5028246;28;19940;-93
2023/03/05 10:33:03;;;;;;;;;;;;;;;22.20;22.78;97445.66;5034114;28;20001;-91
2023/03/05 10:35:35;;;;;;;;;;;;;;;22.88;22.24;97441.94;5030676;28;19925;-90
2023/03/05 10:38:02;;;;;;;;;;;;;;;22.95;21.81;97448.13;5028289;28;19928;-89
2023/03/05 10:40:28;;;;;;;;;;;;;;;21.87;22.39;97447.63;5038575;28;19921;-89
2023/03/05 10:43:00;;;;;;;;;;;;;;;20.84;24.05;97439.78;5023944;28;19917;-90
2023/03/05 10:45:33;;;;;;;;;;;;;;;19.83;25.19;97443.88;5027469;28;19947;-92
2023/03/05 10:48:02;;;;;;;;;;;;;;;19.77;24.24;97439.97;5033924;28;19928;-92
2023/03/05 10:50:41;;;;;;;;;;;;;;;20.24;23.20;97442.84;5034632;28;19921;-92
2023/03/05 10:53:13;;;;;;;;;;;;;;;19.25;25.40;97445.03;5031039;28;19925;-90
2023/03/05 10:55:40;;;;;;;;;;;;;;;21.53;22.66;97443.59;5036442;28;19932;-92
2023/03/05 10:58:10;;;;;;;;;;;;;;;21.48;22.33;97441.31;5034586;28;19921;-94
2023/03/05 11:00:36;;;;;;;;;;;;;;;21.50;22.27;97434.06;5033941;28;19917;-90
2023/03/05 11:03:06;;;;;;;;;;;;;;;22.27;21.58;97425.09;5034622;28;19921;-91
2023/03/05 11:05:41;;;;;;;;;;;;;;;21.52;22.35;97428.84;5032362;28;19917;-90
2023/03/05 11:08:27;;;;;;;;;;;;;;;21.93;22.37;97417.97;5030963;28;20339;-90
2023/03/05 11:11:02;;;;;;;;;;;;;;;21.52;22.27;97419.69;5032079;28;20344;-93
2023/03/05 11:13:28;;;;;;;;;;;;;;;21.30;22.03;97422.94;5015835;28;19953;-91
2023/03/05 11:16:01;;;;;;;;;;;;;;;20.32;22.92;97428.41;5013472;28;19943;-91
2023/03/05 11:18:33;;;;;;;;;;;;;;;18.32;26.58;97415.09;5038751;28;19921;-89
2023/03/05 11:21:06;;;;;;;;;;;;;;;17.74;25.75;97418.72;5032015;28;19925;-92
2023/03/05 11:23:32;;;;;;;;;;;;;;;17.44;26.46;97413.72;5026284;28;19922;-91
2023/03/05 11:26:03;;;;;;;;;;;;;;;19.20;24.18;97416.91;5039922;28;19924;-91
2023/03/05 11:28:33;;;;;;;;;;;;;;;18.86;25.38;97413.31;5029321;28;20331;-90
2023/03/05 11:31:01;;;;;;;;;;;;;;;19.43;25.79;97414.22;5027630;28;20039;-92
2023/03/05 11:33:28;;;;;;;;;;;;;;;17.58;27.66;97423.97;5028459;28;19987;-93
2023/03/05 11:36:08;;;;;;;;;;;;;;;18.35;26.35;97415.03;5032745;28;20019;-92
2023/03/05 11:38:42;;;;;;;;;;;;;;;18.04;27.99;97407.75;5025357;28;19926;-90
2023/03/05 11:41:08;;;;;;;;;;;;;;;17.29;28.75;97412.25;5021801;28;19948;-88
2023/03/05 11:43:37;;;;;;;;;;;;;;;17.71;27.70;97408.44;5036859;28;20376;-89
2023/03/05 11:46:04;;;;;;;;;;;;;;;18.15;26.60;97402.13;5029828;28;19952;-89
2023/03/05 11:48:37;;;;;;;;;;;;;;;17.57;27.29;97395.47;5010826;28;20301;-87
2023/03/05 11:51:16;;;;;;;;;;;;;;;17.08;28.97;97404.03;5026099;28;19965;-84
2023/03/05 11:53:43;;;;;;;;;;;;;;;15.80;30.94;97400.72;5020220;28;20421;-85
2023/03/05 11:56:21;;;;;;;;;;;;;;;13.91;35.14;97414.50;5027263;28;19921;-85
2023/03/05 11:59:01;;;;;;;;;;;;;;;14.34;32.25;97397.06;5019015;28;19925;-84
2023/03/05 12:01:32;;;;;;;;;;;;;;;14.15;33.31;97400.88;5016848;28;19973;-84
2023/03/05 12:03:58;;;;;;;;;;;;;;;13.35;34.45;97407.28;5009798;28;20007;-84
2023/03/05 12:06:45;;;;;;;;;;;;;;;13.87;34.68;97411.69;5013745;28;19940;-85
2023/03/05 12:09:14;;;;;;;;;;;;;;;16.30;29.22;97400.69;5029064;28;19917;-88
2023/03/05 12:11:41;;;;;;;;;;;;;;;15.01;30.11;97400.13;5027355;28;20023;-84
2023/03/05 12:14:25;;;;;;;;;;;;;;;14.08;31.74;97400.00;5032564;28;20024;-85
2023/03/05 12:17:03;;;;;;;;;;;;;;;12.94;32.10;97405.63;5017918;28;20304;-85
2023/03/05 12:19:29;;;;;;;;;;;;;;;14.24;30.73;97403.28;5014120;28;19969;-85
2023/03/05 12:21:56;;;;;;;;;;;;;;;14.45;31.48;97395.94;5018004;28;19922;-85
2023/03/05 12:24:22;;;;;;;;;;;;;;;14.98;29.65;97390.66;5028160;28;20356;-86
2023/03/05 12:26:58;;;;;;;;;;;;;;;16.16;27.99;97386.84;5027744;28;19956;-85
2023/03/05 12:29:36;;;;;;;;;;;;;;;15.64;28.40;97385.69;5029412;28;19925;-87
2023/03/05 12:32:03;;;;;;;;;;;;;;;15.77;28.14;97390.44;5015095;28;19917;-86
2023/03/05 12:34:41;;;;;;;;;;;;;;;16.10;27.57;97391.22;5022075;28;19961;-87
2023/03/05 12:37:11;;;;;;;;;;;;;;;17.03;26.66;97385.03;5022853;28;20324;-86
2023/03/05 12:39:49;;;;;;;;;;;;;;;17.31;25.72;97384.09;5024870;28;19944;-90
2023/03/05 12:42:27;;;;;;;;;;;;;;;18.23;24.85;97384.97;5025036;28;20023;-89
2023/03/05 12:45:26;;;;;;;;;;;;;;;17.50;25.61;97380.81;5022426;28;20007;-88
2023/03/05 12:47:52;;;;;;;;;;;;;;;17.56;25.64;97381.97;4981363;28;19949;-88
2023/03/05 12:50:27;;;;;;;;;;;;;;;18.13;25.07;97377.56;5030129;28;19957;-88
2023/03/05 12:52:54;;;;;;;;;;;;;;;18.00;26.35;97372.88;5034936;28;19917;-87